createdAt,value
2019-02-28T06:40:40.669Z,123.33
2019-02-28T06:43:32.146Z,113.50
2019-02-28T06:46:23.483Z,104.87
2019-02-28T06:49:14.904Z,107.93
2019-02-28T06:52:07.616Z,106.60
2019-02-28T06:54:59.346Z,98.70
2019-02-28T06:57:50.868Z,100.70
2019-02-28T07:00:44.222Z,104.97
2019-02-28T07:03:39.004Z,113.60
2019-02-28T07:06:28.201Z,108.00
2019-02-28T07:09:19.811Z,117.20
2019-02-28T07:12:13.212Z,106.70
2019-02-28T07:15:05.876Z,93.57
2019-02-28T07:17:57.917Z,109.70
2019-02-28T07:20:50.441Z,105.97
2019-02-28T07:23:41.825Z,113.10
2019-02-28T07:26:33.449Z,112.43
2019-02-28T07:29:25.219Z,108.00
2019-02-28T07:32:16.592Z,111.07
2019-02-28T07:35:08.519Z,117.87
2019-02-28T07:38:00.101Z,113.40
2019-02-28T07:40:52.014Z,112.70
2019-02-28T07:43:46.136Z,121.77
2019-02-28T07:46:38.513Z,127.67
2019-02-28T07:49:35.881Z,131.60
2019-02-28T07:52:24.652Z,142.97
2019-02-28T07:55:16.320Z,138.33
2019-02-28T07:58:07.760Z,141.03
2019-02-28T08:00:59.049Z,141.97
2019-02-28T08:03:51.359Z,149.13
2019-02-28T08:06:42.973Z,146.70
2019-02-28T08:09:36.868Z,156.73
2019-02-28T08:12:30.855Z,163.83
2019-02-28T08:15:22.998Z,157.77
2019-02-28T08:18:15.859Z,158.33
2019-02-28T08:21:09.397Z,163.00
2019-02-28T08:24:02.550Z,157.33
2019-02-28T08:26:54.799Z,159.53
2019-02-28T08:29:47.293Z,154.67
2019-02-28T08:32:42.692Z,147.97
2019-02-28T08:35:34.900Z,146.67
2019-02-28T08:38:25.166Z,138.47
2019-02-28T08:41:17.423Z,143.50
2019-02-28T08:44:09.061Z,133.90
2019-02-28T08:47:01.625Z,121.57
2019-02-28T08:49:53.075Z,124.80
2019-02-28T08:52:44.478Z,122.37
2019-02-28T08:55:38.261Z,104.07
2019-02-28T08:58:29.267Z,101.50
2019-02-28T09:01:20.699Z,106.57
2019-02-28T09:04:12.349Z,98.17
2019-02-28T09:07:03.994Z,97.33
2019-02-28T09:09:55.374Z,79.50
2019-02-28T09:12:47.846Z,74.60
2019-02-28T09:15:40.242Z,68.93
2019-02-28T09:18:31.781Z,61.83
2019-02-28T09:21:23.370Z,53.67
2019-02-28T09:24:14.850Z,48.37
2019-02-28T09:27:06.828Z,42.47
2019-02-28T09:29:58.504Z,45.23
2019-02-28T09:32:49.904Z,35.07
2019-02-28T09:35:45.045Z,39.00
2019-02-28T09:38:34.775Z,42.33
2019-02-28T09:41:26.528Z,32.03
2019-02-28T09:44:18.047Z,26.17
2019-02-28T09:47:11.747Z,37.90
2019-02-28T09:50:02.912Z,28.83
2019-02-28T09:52:54.455Z,28.57
2019-02-28T09:55:45.984Z,23.37
2019-02-28T09:58:37.499Z,30.80
2019-02-28T10:01:30.626Z,29.03
2019-02-28T10:04:22.275Z,28.70
2019-02-28T10:07:14.534Z,25.47
2019-02-28T10:10:07.520Z,29.53
2019-02-28T10:12:58.926Z,23.57
2019-02-28T10:15:51.156Z,20.07
2019-02-28T10:18:44.269Z,36.17
2019-02-28T10:21:36.509Z,30.10
2019-02-28T10:24:31.418Z,23.13
2019-02-28T10:27:26.438Z,24.93
2019-02-28T10:30:30.525Z,21.70
2019-02-28T10:33:14.323Z,17.17
2019-02-28T10:36:05.692Z,19.13
2019-02-28T10:38:56.999Z,28.27
2019-02-28T10:41:48.490Z,22.80
2019-02-28T10:44:40.494Z,34.70
2019-02-28T10:47:32.577Z,20.53
2019-02-28T10:50:26.031Z,22.53
2019-02-28T10:53:17.412Z,23.80
2019-02-28T10:56:08.821Z,19.90
2019-02-28T10:59:00.203Z,19.50
2019-02-28T11:01:52.491Z,19.63
2019-02-28T11:04:44.076Z,18.77
2019-02-28T11:07:37.876Z,18.67
2019-02-28T11:10:37.377Z,21.07
2019-02-28T11:13:32.126Z,19.17
2019-02-28T11:16:23.657Z,27.17
2019-02-28T11:19:18.662Z,22.40
2019-02-28T11:22:08.704Z,23.30
2019-02-28T11:25:00.848Z,21.90
2019-02-28T11:27:54.571Z,17.77
2019-02-28T11:30:47.915Z,25.83
2019-02-28T11:33:40.392Z,21.27
2019-02-28T11:36:34.172Z,23.80
2019-02-28T11:39:27.584Z,25.67
2019-02-28T11:42:19.123Z,24.80
2019-02-28T11:45:18.592Z,26.53
2019-02-28T11:48:12.738Z,27.90
2019-02-28T11:51:05.183Z,27.80
2019-02-28T11:53:56.757Z,29.57
2019-02-28T11:56:48.078Z,25.10
2019-02-28T11:59:39.502Z,21.90
2019-02-28T12:02:31.770Z,21.93
2019-02-28T12:05:24.538Z,32.53
2019-02-28T12:08:16.010Z,25.43
2019-02-28T12:11:07.330Z,18.57
2019-02-28T12:13:58.995Z,20.83
2019-02-28T12:16:53.624Z,21.73
2019-02-28T12:19:43.463Z,23.80
2019-02-28T12:22:35.100Z,33.23
2019-02-28T12:25:26.817Z,22.43
2019-02-28T12:28:18.543Z,22.87
2019-02-28T12:31:10.285Z,27.97
2019-02-28T12:34:02.312Z,24.70
2019-02-28T12:36:55.624Z,29.30
2019-02-28T12:39:47.014Z,29.73
2019-02-28T12:42:38.655Z,25.10
2019-02-28T12:45:33.892Z,15.70
2019-02-28T12:48:27.051Z,24.33
2019-02-28T12:51:18.953Z,20.57
2019-02-28T12:54:10.547Z,18.00
2019-02-28T12:57:02.099Z,20.50
2019-02-28T12:59:53.699Z,20.33
2019-02-28T13:02:47.174Z,17.97
2019-02-28T13:05:39.234Z,14.33
2019-02-28T13:08:31.567Z,13.23
2019-02-28T13:11:23.600Z,8.10
2019-02-28T13:14:15.416Z,7.63
2019-02-28T13:17:07.579Z,8.23
2019-02-28T13:19:59.172Z,11.03
2019-02-28T13:22:50.834Z,19.10
2019-02-28T13:25:42.633Z,5.13
2019-02-28T13:28:34.667Z,9.73
2019-02-28T13:31:27.417Z,9.70
2019-02-28T13:34:19.246Z,6.90
2019-02-28T13:37:10.636Z,13.07
2019-02-28T13:40:04.346Z,17.67
2019-02-28T13:42:55.219Z,9.00
2019-02-28T13:45:50.951Z,8.13
2019-02-28T13:48:40.288Z,8.50
2019-02-28T13:51:40.609Z,10.97
2019-02-28T13:54:27.003Z,13.13
2019-02-28T13:57:20.294Z,14.20
2019-02-28T14:00:25.547Z,10.57
2019-02-28T14:03:17.289Z,5.87
2019-02-28T14:06:12.212Z,12.40
2019-02-28T14:09:02.301Z,9.10
2019-02-28T14:11:55.747Z,14.77
2019-02-28T14:14:47.919Z,13.10
2019-02-28T14:17:40.550Z,12.67
2019-02-28T14:20:32.167Z,13.60
2019-02-28T14:23:23.650Z,20.67
2019-02-28T14:26:15.203Z,16.53
2019-02-28T14:29:07.150Z,18.50
2019-02-28T14:31:59.783Z,17.70
2019-02-28T14:34:51.077Z,19.37
2019-02-28T14:37:43.321Z,22.13
2019-02-28T14:40:35.025Z,17.73
2019-02-28T14:43:26.647Z,20.43
2019-02-28T14:46:19.099Z,28.53
2019-02-28T14:49:12.525Z,19.50
2019-02-28T14:52:06.580Z,20.77
2019-02-28T14:54:58.674Z,24.87
2019-02-28T14:57:52.102Z,19.17
2019-02-28T15:00:43.811Z,26.13
2019-02-28T15:03:36.117Z,19.80
2019-02-28T15:06:30.711Z,21.60
2019-02-28T15:09:28.243Z,15.20
2019-02-28T15:12:23.421Z,14.57
2019-02-28T15:15:18.090Z,21.20
2019-02-28T15:18:14.918Z,22.60
2019-02-28T15:21:11.529Z,19.10
2019-02-28T15:24:08.521Z,12.43
2019-02-28T15:27:04.129Z,11.67
2019-02-28T15:29:58.835Z,6.17
2019-02-28T15:32:50.716Z,7.33
2019-02-28T15:35:46.641Z,6.97
2019-02-28T15:38:41.841Z,12.57
2019-02-28T15:41:33.680Z,11.60
2019-02-28T15:44:29.135Z,8.87
2019-02-28T15:47:23.226Z,11.07
2019-02-28T15:50:17.147Z,4.43
2019-02-28T15:53:15.079Z,7.30
2019-02-28T15:56:12.987Z,5.70
2019-02-28T15:59:01.107Z,7.47
2019-02-28T16:01:54.570Z,12.80
2019-02-28T16:04:46.292Z,9.93
2019-02-28T16:07:38.488Z,8.50
2019-02-28T16:10:33.024Z,21.83
2019-02-28T16:13:25.970Z,7.80
2019-02-28T16:16:18.119Z,11.43
2019-02-28T16:19:09.487Z,8.00
2019-02-28T16:22:01.478Z,12.43
2019-02-28T16:24:53.332Z,13.17
2019-02-28T16:27:46.377Z,8.80
2019-02-28T16:30:40.060Z,16.37
2019-02-28T16:33:35.846Z,13.63
2019-02-28T16:36:32.492Z,16.37
2019-02-28T16:39:31.801Z,19.90
2019-02-28T16:42:25.900Z,11.83
2019-02-28T16:45:44.718Z,16.10
2019-02-28T16:48:44.949Z,10.60
2019-02-28T16:51:38.882Z,12.17
2019-02-28T16:54:41.177Z,15.73
2019-02-28T16:57:34.705Z,17.63
2019-02-28T17:00:30.981Z,17.77
2019-02-28T17:03:26.943Z,22.57
2019-02-28T17:06:19.702Z,19.20
2019-02-28T17:09:19.811Z,14.37
2019-02-28T17:12:29.682Z,13.77
2019-02-28T17:15:28.413Z,15.77
2019-02-28T17:18:22.544Z,26.03
2019-02-28T17:21:17.966Z,24.43
2019-02-28T17:24:22.003Z,12.27
2019-02-28T17:27:51.256Z,16.20
2019-02-28T17:31:03.257Z,10.03
2019-02-28T17:33:58.716Z,13.03
2019-02-28T17:36:52.732Z,8.43
2019-02-28T17:39:51.115Z,12.60
2019-02-28T17:42:43.299Z,10.67
2019-02-28T17:45:38.083Z,16.33
2019-02-28T17:49:41.994Z,12.63
2019-02-28T17:52:49.814Z,12.80
2019-02-28T17:56:37.543Z,18.93
2019-02-28T18:00:20.651Z,14.97
2019-02-28T18:04:31.497Z,17.03
2019-02-28T18:08:00.531Z,16.57
2019-02-28T18:11:44.315Z,10.67
2019-02-28T18:15:57.080Z,20.20
2019-02-28T18:20:00.302Z,21.37
2019-02-28T18:23:29.143Z,15.27
2019-02-28T18:27:08.343Z,16.07
2019-02-28T18:31:11.622Z,19.70
2019-02-28T18:34:20.564Z,13.53
2019-02-28T18:37:12.880Z,10.03
2019-02-28T18:40:04.993Z,11.13
2019-02-28T18:42:58.291Z,7.83
2019-02-28T18:45:49.874Z,17.93
2019-02-28T18:48:41.576Z,15.93
2019-02-28T18:51:33.360Z,13.43
2019-02-28T18:54:25.505Z,20.50
2019-02-28T18:57:17.224Z,13.03
2019-02-28T19:00:13.424Z,10.87
2019-02-28T19:03:05.235Z,17.90
2019-02-28T19:05:56.832Z,14.63
2019-02-28T19:08:49.014Z,17.50
2019-02-28T19:11:41.455Z,17.83
2019-02-28T19:14:33.030Z,18.67
2019-02-28T19:17:24.716Z,16.93
2019-02-28T19:20:17.045Z,19.27
2019-02-28T19:23:09.805Z,19.27
2019-02-28T19:26:02.311Z,15.17
2019-02-28T19:28:56.574Z,25.40
2019-02-28T19:31:51.492Z,23.37
2019-02-28T19:34:43.525Z,31.07
2019-02-28T19:37:35.860Z,22.33
2019-02-28T19:40:27.395Z,24.20
2019-02-28T19:43:19.931Z,25.10
2019-02-28T19:46:11.666Z,31.53
2019-02-28T19:49:03.324Z,28.40
2019-02-28T19:51:54.952Z,25.07
2019-02-28T19:54:46.352Z,27.73
2019-02-28T19:57:37.991Z,26.13
2019-02-28T20:00:29.499Z,38.73
2019-02-28T20:03:21.043Z,29.77
2019-02-28T20:06:12.598Z,20.77
2019-02-28T20:09:05.287Z,33.03
2019-02-28T20:11:58.766Z,30.33
2019-02-28T20:14:50.376Z,32.20
2019-02-28T20:17:41.876Z,25.57
2019-02-28T20:20:34.032Z,35.80
2019-02-28T20:23:25.765Z,39.70
2019-02-28T20:26:17.238Z,30.80
2019-02-28T20:29:09.743Z,35.30
2019-02-28T20:32:01.666Z,36.97
2019-02-28T20:34:53.209Z,32.00
2019-02-28T20:37:44.649Z,32.27
2019-02-28T20:40:36.264Z,34.97
2019-02-28T20:43:27.782Z,32.40
2019-02-28T20:46:20.961Z,31.47
2019-02-28T20:49:12.429Z,32.83
2019-02-28T20:52:03.907Z,47.90
2019-02-28T20:54:55.683Z,42.77
2019-02-28T20:57:48.192Z,43.60
2019-02-28T21:00:41.105Z,41.20
2019-02-28T21:03:32.871Z,47.33
2019-02-28T21:06:24.446Z,32.73
2019-02-28T21:09:17.906Z,41.07
2019-02-28T21:12:09.602Z,41.53
2019-02-28T21:15:01.515Z,45.33
2019-02-28T21:17:54.743Z,47.87
2019-02-28T21:20:47.051Z,34.70
2019-02-28T21:23:39.332Z,39.07
2019-02-28T21:26:31.132Z,31.23
2019-02-28T21:29:22.755Z,37.27
2019-02-28T21:32:14.396Z,40.40
2019-02-28T21:35:07.215Z,30.10
2019-02-28T21:37:59.315Z,50.63
2019-02-28T21:40:51.414Z,47.53
2019-02-28T21:43:42.896Z,40.30
2019-02-28T21:46:35.352Z,46.80
2019-02-28T21:49:27.052Z,40.03
2019-02-28T21:52:19.310Z,40.50
2019-02-28T21:55:12.481Z,40.63
2019-02-28T21:58:04.859Z,44.07
2019-02-28T22:00:57.199Z,54.70
2019-02-28T22:03:49.140Z,47.87
2019-02-28T22:06:40.920Z,46.63
2019-02-28T22:09:32.514Z,48.43
2019-02-28T22:12:24.158Z,34.67
2019-02-28T22:15:17.687Z,42.00
2019-02-28T22:18:09.326Z,42.03
2019-02-28T22:21:00.949Z,50.60
2019-02-28T22:23:52.593Z,33.77
2019-02-28T22:26:44.288Z,42.83
2019-02-28T22:29:35.615Z,39.20
2019-02-28T22:32:32.917Z,35.17
2019-02-28T22:35:31.427Z,29.07
2019-02-28T22:38:22.836Z,36.23
2019-02-28T22:41:14.531Z,28.67
2019-02-28T22:44:07.300Z,31.87
2019-02-28T22:46:58.737Z,44.87
2019-02-28T22:49:50.464Z,32.97
2019-02-28T22:52:41.999Z,33.73
2019-02-28T22:55:33.459Z,32.63
2019-02-28T22:58:25.157Z,42.00
2019-02-28T23:01:19.896Z,37.17
2019-02-28T23:04:11.311Z,50.80
2019-02-28T23:07:04.772Z,41.20
2019-02-28T23:09:56.264Z,38.50
2019-02-28T23:12:47.955Z,39.93
2019-02-28T23:15:39.629Z,35.47
2019-02-28T23:18:31.184Z,43.57
2019-02-28T23:21:22.999Z,48.47
2019-02-28T23:24:14.602Z,61.50
2019-02-28T23:27:22.210Z,45.83
2019-02-28T23:30:40.551Z,52.13
2019-02-28T23:33:32.474Z,50.50
2019-02-28T23:36:24.162Z,60.70
2019-02-28T23:39:15.603Z,58.70
2019-02-28T23:42:07.165Z,53.10
2019-02-28T23:44:58.940Z,46.73
2019-02-28T23:47:50.292Z,63.07
2019-02-28T23:50:41.913Z,54.13
2019-02-28T23:53:33.373Z,51.90
2019-02-28T23:56:25.078Z,55.20
2019-02-28T23:59:17.474Z,45.03
